Airfield :
LOGIN :

Register | Disclaimer

   EN    FR    IT 

 










Legend :    VFR   Marginal VFR   IFR   Intensive IFR   Very Intensive IFR
Visi :
Ceiling :
>= 8 km
>= 3000ft
5 to 8 km
1000 to 3000 ft
1500m to 5 km
500 to 1000 ft
800 to 1500m
200 to 500 ft
< 800m
< 200 ft
Symbols :   Thunderstorms  Fog  Heavy snow  Heavy precipitations  Wind > 20 kt
SIGMETs :     Misc.  Thunderstorms  Icing  Turbulence  Mountain Waves  Volcanic Ashes






- Airport Elevation : 2054 ft
- IATA code : RRS


ENRO - Røros

CURRENT METAR :
  • 200320Z AUTO VRB03KT 9999NDV FEW032/// M15/M16 Q0998

EXPIRED METARs :
  • 200250Z AUTO 31003KT 210V020 9999NDV FEW033/// M17/M18 Q0999
  • 200220Z AUTO VRB01KT 9999NDV FEW035/// M17/M18 Q1000
  • 200150Z AUTO VRB02KT 9999NDV FEW034/// M16/M18 Q1000
  • 200120Z AUTO VRB01KT 9999NDV NCD M17/M18 Q1000

TAF TAF ENRO
Valid from the 20 at 03:00 until the 20 at 12:00 UTC


200200Z 2003/2012 18008KT 9999 FEW020 BKN070
BECMG 2006/2008 18018KT
TEMPO 2008/2012 20020G30KT 4000 -SN



MET'MAP, your aeronautical weather chart ! - Copyright ORBIFLY December 2007 - Disclaimer

ORBIFLY MET'MAP TEAM :

Programming & Development : Alexandra Zaïnal
Concept & original design : Baudouin d'Aumeries
Assistance for programming : Marc-Olivier Méhu
Technical & hardware support : Manuel Goepfert

Contact : metmap@orbifly.com




SOURCES & CREDITS :

   NOAA